Terminal Aerodrome Forecast
Issued by NWS

Home | Current Version | Previous Version | Text Only | Print | Product List | Glossary On
Versions: 1 2 3 4 5 6 7 8 9 10 11 12 13 14 15 16 17 18 19 20 21 22 23 24 25 26 27 28 29 30
000
FTUS42 KRAH 021140
TAFRWI
TAF
KRWI 021140Z 0212/0312 22007KT P6SM VCSH BKN120 BKN250
      TEMPO 0213/0216 3SM -SHRA
     FM021600 24014G21KT P6SM SCT045 BKN100 PROB30 0222/0302
      VRB15G30KT 4SM -TSRA SCT025 BKN045CB=

USA.gov is the U.S. government's official web portal to all federal, state and local government web resources and services.